createdAt,value
2019-01-08T00:02:03.166Z,19.02
2019-01-08T00:04:08.953Z,19.15
2019-01-08T00:06:17.154Z,19.42
2019-01-08T00:08:22.650Z,20.70
2019-01-08T00:10:29.270Z,18.37
2019-01-08T00:12:35.243Z,18.70
2019-01-08T00:14:42.546Z,19.00
2019-01-08T00:16:50.354Z,20.10
2019-01-08T00:18:58.779Z,16.97
2019-01-08T00:21:09.986Z,19.00
2019-01-08T00:23:15.671Z,18.95
2019-01-08T00:25:28.812Z,18.92
2019-01-08T00:27:34.296Z,20.62
2019-01-08T00:29:39.758Z,19.57
2019-01-08T00:31:49.954Z,19.55
2019-01-08T00:33:57.170Z,19.85
2019-01-08T00:36:12.028Z,20.52
2019-01-08T00:38:23.221Z,19.62
2019-01-08T00:40:37.397Z,20.05
2019-01-08T00:42:42.934Z,20.15
2019-01-08T00:44:48.448Z,18.23
2019-01-08T00:46:58.593Z,19.05
2019-01-08T00:49:13.583Z,20.37
2019-01-08T00:51:21.750Z,19.77
2019-01-08T00:53:39.054Z,17.75
2019-01-08T00:55:44.710Z,20.02
2019-01-08T00:57:51.996Z,19.67
2019-01-08T00:59:57.446Z,22.00
2019-01-08T01:02:06.083Z,20.60
2019-01-08T01:04:14.129Z,19.45
2019-01-08T01:06:20.020Z,20.50
2019-01-08T01:08:29.909Z,21.80
2019-01-08T01:10:37.099Z,20.77
2019-01-08T01:12:42.638Z,22.90
2019-01-08T01:14:49.910Z,24.12
2019-01-08T01:16:55.406Z,20.80
2019-01-08T01:19:02.824Z,22.07
2019-01-08T01:21:11.335Z,21.23
2019-01-08T01:23:18.566Z,21.97
2019-01-08T01:25:24.102Z,23.02
2019-01-08T01:27:32.578Z,20.30
2019-01-08T01:29:43.755Z,19.60
2019-01-08T01:31:49.253Z,20.60
2019-01-08T01:33:56.542Z,20.00
2019-01-08T01:36:08.204Z,21.02
2019-01-08T01:38:13.787Z,19.60
2019-01-08T01:40:21.055Z,19.98
2019-01-08T01:42:26.699Z,20.30
2019-01-08T01:44:39.878Z,21.40
2019-01-08T01:46:45.454Z,21.45
2019-01-08T01:48:51.240Z,19.00
2019-01-08T01:50:59.662Z,19.30
2019-01-08T01:53:05.220Z,18.98
2019-01-08T01:55:13.490Z,20.55
2019-01-08T01:57:20.836Z,20.00
2019-01-08T01:59:26.547Z,18.45
2019-01-08T02:01:32.066Z,19.87
2019-01-08T02:03:37.548Z,19.02
2019-01-08T02:05:52.018Z,21.35
2019-01-08T02:07:57.499Z,18.48
2019-01-08T02:10:09.110Z,19.75
2019-01-08T02:12:14.954Z,19.75
2019-01-08T02:14:22.223Z,18.80
2019-01-08T02:16:28.500Z,22.00
2019-01-08T02:18:36.662Z,19.90
2019-01-08T02:20:42.282Z,20.37
2019-01-08T02:22:49.643Z,21.25
2019-01-08T02:24:55.718Z,20.30
2019-01-08T02:27:03.228Z,19.07
2019-01-08T02:29:16.677Z,18.12
2019-01-08T02:31:22.186Z,19.87
2019-01-08T02:33:29.035Z,18.15
2019-01-08T02:35:36.384Z,18.02
2019-01-08T02:37:56.802Z,18.48
2019-01-08T02:40:03.993Z,19.98
2019-01-08T02:42:09.677Z,21.97
2019-01-08T02:44:18.143Z,19.48
2019-01-08T02:46:24.133Z,21.35
2019-01-08T02:48:30.203Z,20.12
2019-01-08T02:50:35.813Z,19.73
2019-01-08T02:52:44.913Z,20.50
2019-01-08T02:54:52.149Z,19.92
2019-01-08T02:56:57.711Z,17.87
2019-01-08T02:59:09.324Z,21.37
2019-01-08T03:01:14.866Z,19.70
2019-01-08T03:03:23.383Z,22.15
2019-01-08T03:05:31.118Z,20.85
2019-01-08T03:07:36.765Z,19.32
2019-01-08T03:09:44.120Z,18.60
2019-01-08T03:11:50.271Z,19.30
2019-01-08T03:14:06.356Z,22.62
2019-01-08T03:16:14.795Z,21.87
2019-01-08T03:18:20.481Z,22.82
2019-01-08T03:20:27.858Z,20.92
2019-01-08T03:22:35.552Z,22.15
2019-01-08T03:24:43.289Z,21.12
2019-01-08T03:26:51.744Z,20.92
2019-01-08T03:28:57.307Z,22.32
2019-01-08T03:31:03.523Z,18.70
2019-01-08T03:33:12.227Z,21.87
2019-01-08T03:35:17.773Z,20.55
2019-01-08T03:37:25.223Z,22.93
2019-01-08T03:39:30.843Z,24.18
2019-01-08T03:41:38.129Z,23.22
2019-01-08T03:43:43.774Z,22.70
2019-01-08T03:45:49.379Z,22.13
2019-01-08T03:47:56.050Z,22.98
2019-01-08T03:50:02.802Z,22.27
2019-01-08T03:52:11.457Z,21.10
2019-01-08T03:54:24.678Z,19.67
2019-01-08T03:56:30.875Z,19.45
2019-01-08T03:58:38.395Z,19.62
2019-01-08T04:00:56.304Z,21.30
2019-01-08T04:03:03.715Z,21.60
2019-01-08T04:05:09.288Z,21.75
2019-01-08T04:07:17.853Z,19.35
2019-01-08T04:09:23.784Z,20.27
2019-01-08T04:11:37.946Z,21.15
2019-01-08T04:13:47.002Z,21.45
2019-01-08T04:15:52.980Z,20.25
2019-01-08T04:17:58.556Z,21.35
2019-01-08T04:20:05.852Z,19.85
2019-01-08T04:22:11.399Z,20.02
2019-01-08T04:24:32.067Z,21.80
2019-01-08T04:26:37.642Z,19.67
2019-01-08T04:28:43.185Z,20.55
2019-01-08T04:30:58.957Z,19.30
2019-01-08T04:33:04.662Z,19.98
2019-01-08T04:35:14.484Z,20.37
2019-01-08T04:37:21.804Z,20.43
2019-01-08T04:39:33.295Z,21.80
2019-01-08T04:41:40.474Z,18.55
2019-01-08T04:43:47.751Z,16.45
2019-01-08T04:45:56.078Z,19.77
2019-01-08T04:48:05.610Z,20.10
2019-01-08T04:50:17.455Z,18.60
2019-01-08T04:52:30.550Z,20.88
2019-01-08T04:54:42.635Z,22.22
2019-01-08T04:56:48.847Z,22.30
2019-01-08T04:59:06.736Z,22.17
2019-01-08T05:01:21.121Z,20.40
2019-01-08T05:03:30.674Z,22.05
2019-01-08T05:05:37.943Z,20.05
2019-01-08T05:07:43.527Z,19.77
2019-01-08T05:09:53.729Z,20.10
2019-01-08T05:11:59.585Z,20.45
2019-01-08T05:14:06.890Z,20.08
2019-01-08T05:16:18.262Z,18.60
2019-01-08T05:18:31.294Z,19.60
2019-01-08T05:20:42.894Z,19.67
2019-01-08T05:23:06.418Z,18.37
2019-01-08T05:25:13.606Z,21.80
2019-01-08T05:27:19.259Z,21.65
2019-01-08T05:29:30.561Z,20.30
2019-01-08T05:31:37.898Z,20.92
2019-01-08T05:33:49.938Z,19.37
2019-01-08T05:35:55.527Z,19.80
2019-01-08T05:38:01.000Z,22.17
2019-01-08T05:40:07.581Z,19.75
2019-01-08T05:42:14.852Z,18.40
2019-01-08T05:44:20.391Z,19.73
2019-01-08T05:46:25.988Z,20.80
2019-01-08T05:48:34.393Z,20.40
2019-01-08T05:50:53.525Z,19.90
2019-01-08T05:52:58.989Z,20.40
2019-01-08T05:55:15.402Z,22.05
2019-01-08T05:57:21.014Z,20.52
2019-01-08T05:59:26.960Z,21.68
2019-01-08T06:01:33.854Z,21.30
2019-01-08T06:03:41.247Z,20.37
2019-01-08T06:05:46.877Z,22.58
2019-01-08T06:07:52.497Z,24.37
2019-01-08T06:09:58.099Z,19.48
2019-01-08T06:12:54.194Z,21.93
2019-01-08T06:14:59.759Z,22.27
2019-01-08T06:17:08.343Z,20.35
2019-01-08T06:19:28.502Z,22.05
2019-01-08T06:21:35.268Z,21.25
2019-01-08T06:23:47.480Z,19.70
2019-01-08T06:25:55.153Z,20.70
2019-01-08T06:28:01.192Z,18.52
2019-01-08T06:30:08.063Z,20.88
2019-01-08T06:32:16.699Z,19.73
2019-01-08T06:34:24.774Z,19.82
2019-01-08T06:36:31.006Z,20.57
2019-01-08T06:38:37.329Z,19.73
2019-01-08T06:40:44.618Z,19.37
2019-01-08T06:42:50.178Z,19.23
2019-01-08T06:44:57.610Z,18.32
2019-01-08T06:47:12.214Z,20.37
2019-01-08T06:49:19.405Z,19.35
2019-01-08T06:51:26.974Z,19.42
2019-01-08T06:53:35.487Z,19.60
2019-01-08T06:55:43.452Z,19.07
2019-01-08T06:57:54.847Z,18.87
2019-01-08T07:00:00.590Z,21.57
2019-01-08T07:02:06.448Z,18.92
2019-01-08T07:04:14.886Z,19.42
2019-01-08T07:06:22.070Z,20.15
2019-01-08T07:08:30.299Z,19.23
2019-01-08T07:10:37.521Z,20.77
2019-01-08T07:12:43.028Z,19.85
2019-01-08T07:14:54.589Z,20.92
2019-01-08T07:17:00.098Z,20.37
2019-01-08T07:19:16.653Z,17.82
2019-01-08T07:21:23.837Z,18.67
2019-01-08T07:23:29.262Z,22.13
2019-01-08T07:25:42.144Z,19.27
2019-01-08T07:27:43.930Z,19.50
2019-01-08T07:29:51.100Z,20.17
2019-01-08T07:32:01.414Z,21.15
2019-01-08T07:34:09.666Z,20.27
2019-01-08T07:36:18.238Z,19.30
2019-01-08T07:38:32.720Z,20.70
2019-01-08T07:40:38.165Z,20.48
2019-01-08T07:42:46.653Z,19.48
2019-01-08T07:44:54.588Z,21.70
2019-01-08T07:47:09.007Z,19.37
2019-01-08T07:49:21.234Z,19.82
2019-01-08T07:51:28.663Z,20.05
2019-01-08T07:53:35.822Z,19.35
2019-01-08T07:55:45.966Z,19.00
2019-01-08T07:57:51.804Z,20.00
2019-01-08T07:59:57.258Z,20.70
2019-01-08T08:02:08.471Z,19.25
2019-01-08T08:04:17.134Z,19.62
2019-01-08T08:06:24.385Z,20.77
2019-01-08T08:08:29.857Z,19.02
2019-01-08T08:10:35.385Z,18.65
2019-01-08T08:12:41.821Z,20.88
2019-01-08T08:14:47.266Z,18.75
2019-01-08T08:16:54.449Z,21.73
2019-01-08T08:19:02.557Z,19.10
2019-01-08T08:21:09.706Z,20.10
2019-01-08T08:23:27.195Z,20.75
2019-01-08T08:25:35.930Z,20.37
2019-01-08T08:27:45.191Z,20.17
2019-01-08T08:29:53.583Z,19.35
2019-01-08T08:32:08.258Z,20.92
2019-01-08T08:34:14.039Z,22.58
2019-01-08T08:36:22.370Z,20.95
2019-01-08T08:38:27.973Z,20.85
2019-01-08T08:40:33.483Z,18.25
2019-01-08T08:42:42.208Z,21.75
2019-01-08T08:44:49.426Z,21.55
2019-01-08T08:47:01.098Z,21.48
2019-01-08T08:49:06.586Z,21.57
2019-01-08T08:51:18.314Z,21.77
2019-01-08T08:53:35.809Z,20.08
2019-01-08T08:55:52.850Z,24.47
2019-01-08T08:58:01.310Z,24.87
2019-01-08T09:00:08.162Z,21.10
2019-01-08T09:02:16.665Z,21.55
2019-01-08T09:04:28.211Z,21.85
2019-01-08T09:06:36.686Z,19.67
2019-01-08T09:08:42.154Z,21.15
2019-01-08T09:10:50.529Z,21.17
2019-01-08T09:12:57.679Z,19.87
2019-01-08T09:15:09.386Z,18.27
2019-01-08T09:17:17.355Z,18.62
2019-01-08T09:19:22.807Z,17.65
2019-01-08T09:21:31.247Z,19.60
2019-01-08T09:23:37.723Z,18.45
2019-01-08T09:25:44.441Z,19.60
2019-01-08T09:27:51.646Z,20.10
2019-01-08T09:30:02.748Z,20.55
2019-01-08T09:32:20.603Z,21.30
2019-01-08T09:34:29.003Z,20.30
2019-01-08T09:36:37.186Z,19.87
2019-01-08T09:38:44.415Z,20.55
2019-01-08T09:40:50.310Z,19.57
2019-01-08T09:43:01.956Z,19.45
2019-01-08T09:45:09.598Z,20.48
2019-01-08T09:47:15.459Z,18.55
2019-01-08T09:49:23.729Z,19.35
2019-01-08T09:51:29.190Z,20.08
2019-01-08T09:53:34.789Z,18.25
2019-01-08T09:55:42.077Z,20.23
2019-01-08T09:57:49.324Z,18.70
2019-01-08T09:59:54.891Z,21.15
2019-01-08T10:02:00.443Z,22.50
2019-01-08T10:04:07.620Z,20.75
2019-01-08T10:06:14.816Z,21.57
2019-01-08T10:08:20.356Z,20.35
2019-01-08T10:10:27.658Z,20.10
2019-01-08T10:12:33.246Z,19.98
2019-01-08T10:14:47.908Z,18.77
2019-01-08T10:16:56.481Z,17.92
2019-01-08T10:19:02.060Z,19.75
2019-01-08T10:21:07.579Z,17.77
2019-01-08T10:23:18.835Z,18.42
2019-01-08T10:25:25.973Z,18.82
2019-01-08T10:27:34.355Z,18.32
2019-01-08T10:29:43.275Z,19.55
2019-01-08T10:31:48.894Z,20.12
2019-01-08T10:33:56.058Z,18.35
2019-01-08T10:36:03.248Z,19.20
2019-01-08T10:38:11.814Z,18.30
2019-01-08T10:40:17.244Z,17.92
2019-01-08T10:42:22.837Z,19.85
2019-01-08T10:44:28.408Z,18.55
2019-01-08T10:46:37.530Z,19.70
2019-01-08T10:48:45.290Z,18.70
2019-01-08T10:50:50.890Z,17.82
2019-01-08T10:53:01.107Z,18.75
2019-01-08T10:55:09.640Z,19.37
2019-01-08T10:57:15.162Z,18.02
2019-01-08T10:59:20.624Z,19.45
2019-01-08T11:01:29.177Z,18.90
2019-01-08T11:03:36.389Z,20.40
2019-01-08T11:05:43.890Z,20.25
2019-01-08T11:07:51.054Z,19.25
2019-01-08T11:10:03.239Z,20.68
2019-01-08T11:12:12.264Z,17.57
2019-01-08T11:14:17.775Z,18.98
2019-01-08T11:16:23.218Z,19.40
2019-01-08T11:18:29.181Z,20.25
2019-01-08T11:20:36.462Z,18.62
2019-01-08T11:22:43.673Z,18.77
2019-01-08T11:24:50.896Z,17.95
2019-01-08T11:26:56.454Z,19.60
2019-01-08T11:29:08.279Z,21.40
2019-01-08T11:31:18.119Z,18.87
2019-01-08T11:33:25.370Z,19.87
2019-01-08T11:35:31.727Z,19.75
2019-01-08T11:37:37.296Z,21.40
2019-01-08T11:39:45.476Z,20.45
2019-01-08T11:41:52.303Z,20.05
2019-01-08T11:43:59.587Z,18.75
2019-01-08T11:46:11.137Z,18.20
2019-01-08T11:48:18.346Z,20.62
2019-01-08T11:50:23.886Z,21.73
2019-01-08T11:52:29.544Z,19.35
2019-01-08T11:54:53.262Z,19.50
2019-01-08T11:56:58.795Z,16.77
2019-01-08T11:59:11.857Z,18.25
2019-01-08T12:01:18.783Z,19.67
2019-01-08T12:03:24.398Z,17.65
2019-01-08T12:05:31.732Z,17.95
2019-01-08T12:07:37.283Z,18.32
2019-01-08T12:09:55.167Z,20.08
2019-01-08T12:12:02.238Z,19.85
2019-01-08T12:14:09.495Z,17.25
2019-01-08T12:16:15.111Z,18.07
2019-01-08T12:18:20.780Z,17.95
2019-01-08T12:20:29.297Z,16.62
2019-01-08T12:22:44.023Z,16.95
2019-01-08T12:24:50.836Z,16.55
2019-01-08T12:27:03.418Z,16.07
2019-01-08T12:29:14.715Z,9.50
2019-01-08T12:31:26.322Z,12.73
2019-01-08T12:33:32.119Z,13.75
2019-01-08T12:35:40.605Z,11.75
2019-01-08T12:37:52.166Z,13.72
2019-01-08T12:39:59.313Z,13.03
2019-01-08T12:42:04.936Z,13.35
2019-01-08T12:44:13.466Z,13.55
2019-01-08T12:46:38.836Z,12.63
2019-01-08T12:48:44.459Z,10.58
2019-01-08T12:50:52.675Z,10.25
2019-01-08T12:53:01.213Z,6.85
2019-01-08T12:55:06.787Z,7.10
2019-01-08T12:57:18.156Z,6.65
2019-01-08T12:59:29.602Z,8.43
2019-01-08T13:01:35.242Z,7.25
2019-01-08T13:03:40.913Z,8.70
2019-01-08T13:05:46.983Z,10.28
2019-01-08T13:08:00.759Z,8.55
2019-01-08T13:10:08.979Z,7.55
2019-01-08T13:12:16.206Z,7.35
2019-01-08T13:14:21.731Z,8.25
2019-01-08T13:16:29.008Z,7.50
2019-01-08T13:18:35.868Z,10.25
2019-01-08T13:20:47.335Z,9.43
2019-01-08T13:22:54.618Z,8.93
2019-01-08T13:25:09.272Z,9.68
2019-01-08T13:27:23.253Z,8.68
2019-01-08T13:29:30.691Z,10.00
2019-01-08T13:31:36.602Z,10.23
2019-01-08T13:33:43.810Z,9.95
2019-01-08T13:35:51.753Z,7.72
2019-01-08T13:38:01.806Z,8.03
2019-01-08T13:40:07.478Z,7.17
2019-01-08T13:42:16.152Z,8.10
2019-01-08T13:44:21.772Z,8.28
2019-01-08T13:46:27.682Z,10.32
2019-01-08T13:48:39.291Z,8.20
2019-01-08T13:50:44.850Z,7.10
2019-01-08T13:52:52.165Z,5.35
2019-01-08T13:55:03.806Z,6.28
2019-01-08T13:57:18.347Z,5.55
2019-01-08T13:59:33.070Z,8.35
2019-01-08T14:01:39.469Z,5.42
2019-01-08T14:03:45.002Z,6.15
2019-01-08T14:05:52.190Z,5.60
2019-01-08T14:08:01.346Z,4.92
2019-01-08T14:10:07.450Z,5.53
2019-01-08T14:12:14.622Z,5.83
2019-01-08T14:14:21.103Z,4.78
2019-01-08T14:16:29.688Z,4.85
2019-01-08T14:18:35.331Z,4.70
2019-01-08T14:20:51.716Z,5.17
2019-01-08T14:23:01.538Z,4.62
2019-01-08T14:25:12.969Z,4.72
2019-01-08T14:27:20.051Z,5.47
2019-01-08T14:29:25.762Z,5.53
2019-01-08T14:31:31.740Z,3.40
2019-01-08T14:33:37.339Z,3.20
2019-01-08T14:35:48.334Z,3.67
2019-01-08T14:38:01.450Z,3.95
2019-01-08T14:40:09.547Z,3.05
2019-01-08T14:42:30.263Z,3.05
2019-01-08T14:44:47.115Z,4.83
2019-01-08T14:46:53.410Z,5.10
2019-01-08T14:48:59.058Z,4.60
2019-01-08T14:51:06.460Z,4.40
2019-01-08T14:53:13.907Z,4.78
2019-01-08T14:55:20.733Z,5.75
2019-01-08T14:57:32.200Z,7.75
2019-01-08T14:59:37.710Z,9.73
2019-01-08T15:01:43.586Z,10.63
2019-01-08T15:03:49.088Z,7.80
2019-01-08T15:05:56.332Z,5.20
2019-01-08T15:08:03.543Z,5.85
2019-01-08T15:10:10.873Z,4.50
2019-01-08T15:12:24.332Z,4.60
2019-01-08T15:14:30.763Z,4.70
2019-01-08T15:16:44.514Z,4.97
2019-01-08T15:18:50.015Z,4.05
2019-01-08T15:21:09.345Z,5.35
2019-01-08T15:23:15.262Z,4.60
2019-01-08T15:25:26.610Z,3.95
2019-01-08T15:27:32.312Z,4.87
2019-01-08T15:29:44.319Z,4.35
2019-01-08T15:32:02.410Z,4.97
2019-01-08T15:34:13.994Z,5.75
2019-01-08T15:36:19.913Z,7.35
2019-01-08T15:38:27.218Z,7.85
2019-01-08T15:40:34.508Z,7.80
2019-01-08T15:42:41.795Z,6.75
2019-01-08T15:44:50.621Z,7.65
2019-01-08T15:46:55.747Z,9.45
2019-01-08T15:49:04.245Z,9.53
2019-01-08T15:51:11.490Z,9.78
2019-01-08T15:53:18.323Z,10.10
2019-01-08T15:55:25.521Z,10.78
2019-01-08T15:57:31.243Z,10.05
2019-01-08T15:59:36.905Z,10.88
2019-01-08T16:01:42.440Z,9.23
2019-01-08T16:03:49.649Z,10.75
2019-01-08T16:05:55.114Z,9.78
2019-01-08T16:08:06.473Z,10.95
2019-01-08T16:10:13.898Z,10.58
2019-01-08T16:12:21.397Z,10.43
2019-01-08T16:14:44.553Z,10.68
2019-01-08T16:16:51.605Z,10.23
2019-01-08T16:18:57.057Z,9.60
2019-01-08T16:21:02.609Z,13.65
2019-01-08T16:23:08.248Z,13.15
2019-01-08T16:25:13.884Z,12.82
2019-01-08T16:27:19.351Z,16.30
2019-01-08T16:29:25.066Z,17.23
2019-01-08T16:31:30.825Z,19.35
2019-01-08T16:33:36.747Z,18.52
2019-01-08T16:35:42.421Z,21.85
2019-01-08T16:37:48.124Z,16.80
2019-01-08T16:39:53.643Z,17.70
2019-01-08T16:41:59.190Z,17.67
2019-01-08T16:44:05.219Z,19.00
2019-01-08T16:46:11.926Z,21.48
2019-01-08T16:48:17.435Z,24.98
2019-01-08T16:50:23.134Z,32.70
2019-01-08T16:52:30.331Z,31.93
2019-01-08T16:54:35.888Z,22.10
2019-01-08T16:56:41.513Z,22.20
2019-01-08T16:58:47.436Z,21.62
2019-01-08T17:00:53.263Z,22.87
2019-01-08T17:02:58.898Z,25.40
2019-01-08T17:05:05.729Z,36.75
2019-01-08T17:07:12.796Z,28.73
2019-01-08T17:09:18.390Z,23.42
2019-01-08T17:11:24.099Z,23.45
2019-01-08T17:13:29.764Z,23.90
2019-01-08T17:15:35.343Z,20.60
2019-01-08T17:17:44.803Z,20.50
2019-01-08T17:19:51.119Z,20.80
2019-01-08T17:21:56.696Z,19.80
2019-01-08T17:24:10.476Z,18.55
2019-01-08T17:26:16.033Z,18.95
2019-01-08T17:28:21.603Z,18.15
2019-01-08T17:30:29.318Z,19.42
2019-01-08T17:32:34.991Z,16.52
2019-01-08T17:34:40.672Z,18.10
2019-01-08T17:36:50.088Z,18.55
2019-01-08T17:38:55.849Z,17.62
2019-01-08T17:41:01.436Z,18.05
2019-01-08T17:43:07.161Z,17.40
2019-01-08T17:45:12.909Z,19.77
2019-01-08T17:47:22.300Z,19.17
2019-01-08T17:49:28.227Z,17.95
2019-01-08T17:51:36.474Z,18.62
2019-01-08T17:53:42.941Z,18.67
2019-01-08T17:55:48.635Z,17.92
2019-01-08T17:58:34.406Z,15.88
2019-01-08T18:00:39.999Z,18.23
2019-01-08T18:02:53.291Z,15.98
2019-01-08T18:05:00.678Z,16.07
2019-01-08T18:07:06.362Z,16.82
2019-01-08T18:09:15.247Z,17.55
2019-01-08T18:11:20.996Z,16.23
2019-01-08T18:13:26.497Z,9.45
2019-01-08T18:15:32.037Z,16.45
2019-01-08T18:17:37.920Z,18.17
2019-01-08T18:19:43.533Z,21.30
2019-01-08T18:21:50.864Z,18.87
2019-01-08T18:23:56.478Z,18.00
2019-01-08T18:26:02.093Z,19.17
2019-01-08T18:28:07.908Z,15.95
2019-01-08T18:30:13.580Z,17.12
2019-01-08T18:32:19.621Z,15.65
2019-01-08T18:34:25.352Z,17.27
2019-01-08T18:36:30.910Z,17.50
2019-01-08T18:38:36.476Z,20.88
2019-01-08T18:40:43.053Z,21.97
2019-01-08T18:42:48.648Z,21.65
2019-01-08T18:44:54.408Z,18.15
2019-01-08T18:47:01.678Z,17.87
2019-01-08T18:49:07.923Z,20.37
2019-01-08T18:51:13.667Z,18.95
2019-01-08T18:53:19.228Z,19.87
2019-01-08T18:55:25.712Z,17.42
2019-01-08T18:57:31.420Z,16.07
2019-01-08T18:59:37.201Z,18.30
2019-01-08T19:01:42.806Z,18.90
2019-01-08T19:03:48.364Z,19.50
2019-01-08T19:05:54.087Z,16.07
2019-01-08T19:08:00.023Z,20.92
2019-01-08T19:10:10.123Z,18.12
2019-01-08T19:12:18.532Z,16.35
2019-01-08T19:14:26.698Z,18.15
2019-01-08T19:16:32.339Z,19.32
2019-01-08T19:18:38.114Z,19.50
2019-01-08T19:20:43.731Z,19.02
2019-01-08T19:22:49.341Z,20.65
2019-01-08T19:24:54.803Z,18.37
2019-01-08T19:27:00.497Z,19.23
2019-01-08T19:29:06.128Z,20.50
2019-01-08T19:31:13.435Z,18.60
2019-01-08T19:33:19.199Z,18.32
2019-01-08T19:35:31.585Z,18.40
2019-01-08T19:37:34.279Z,16.52
2019-01-08T19:39:39.897Z,18.85
2019-01-08T19:41:47.084Z,12.23
2019-01-08T19:43:52.681Z,16.10
2019-01-08T19:45:58.465Z,17.50
2019-01-08T20:15:07.490Z,13.38
2019-01-08T20:17:15.205Z,16.12
2019-01-08T20:19:21.290Z,16.42
2019-01-08T20:21:26.829Z,13.72
2019-01-08T20:23:37.239Z,15.08
2019-01-08T20:26:43.316Z,15.10
2019-01-08T20:28:48.897Z,10.80
2019-01-08T20:31:02.297Z,13.58
2019-01-08T20:33:11.683Z,14.13
2019-01-08T20:35:21.450Z,11.48
2019-01-08T20:37:27.019Z,14.20
2019-01-08T20:39:33.177Z,10.78
2019-01-08T20:41:39.108Z,15.20
2019-01-08T20:43:44.863Z,15.28
2019-01-08T20:45:55.280Z,16.60
2019-01-08T20:48:02.565Z,13.18
2019-01-08T20:50:12.404Z,15.95
2019-01-08T20:52:17.421Z,13.50
2019-01-08T20:54:26.008Z,13.53
2019-01-08T20:56:33.333Z,11.33
2019-01-08T20:58:39.755Z,9.93
2019-01-08T21:00:48.498Z,10.40
2019-01-08T21:02:54.646Z,10.60
2019-01-08T21:05:01.584Z,10.30
2019-01-08T21:07:07.603Z,7.75
2019-01-08T21:09:15.351Z,11.78
2019-01-08T21:11:21.380Z,9.55
2019-01-08T21:13:27.102Z,11.93
2019-01-08T21:15:33.146Z,12.10
2019-01-08T21:17:39.618Z,11.48
2019-01-08T21:19:45.815Z,12.73
2019-01-08T21:21:52.330Z,16.35
2019-01-08T21:23:58.110Z,14.30
2019-01-08T21:26:06.971Z,15.83
2019-01-08T21:28:12.807Z,14.98
2019-01-08T21:30:18.733Z,10.88
2019-01-08T21:32:25.084Z,9.88
2019-01-08T21:34:43.862Z,27.15
2019-01-08T21:36:43.031Z,25.50
2019-01-08T21:38:50.811Z,14.70
2019-01-08T21:40:59.821Z,9.63
2019-01-08T21:43:07.996Z,11.15
2019-01-08T21:45:14.202Z,13.20
2019-01-08T21:47:20.122Z,13.00
2019-01-08T21:49:26.470Z,19.45
2019-01-08T21:51:38.324Z,11.60
2019-01-08T21:53:43.982Z,12.65
2019-01-08T21:55:49.768Z,13.30
2019-01-08T21:57:55.787Z,17.87
2019-01-08T22:00:02.394Z,14.10
2019-01-08T22:02:09.763Z,14.60
2019-01-08T22:04:17.048Z,13.15
2019-01-08T22:06:22.820Z,13.55
2019-01-08T22:08:28.479Z,12.50
2019-01-08T22:10:36.790Z,11.28
2019-01-08T22:12:42.602Z,12.90
2019-01-08T22:14:48.744Z,12.47
2019-01-08T22:16:58.471Z,14.23
2019-01-08T22:19:06.238Z,16.65
2019-01-08T22:21:13.425Z,10.95
2019-01-08T22:23:30.949Z,13.15
2019-01-08T22:25:46.587Z,12.28
2019-01-08T22:27:53.152Z,12.58
2019-01-08T22:30:00.834Z,12.20
2019-01-08T22:39:09.191Z,25.57
2019-01-08T22:41:16.258Z,25.43
2019-01-08T22:43:22.507Z,22.60
2019-01-08T22:45:28.335Z,22.93
2019-01-08T22:47:34.162Z,28.20
2019-01-08T22:49:40.618Z,26.68
2019-01-08T22:51:46.305Z,23.27
2019-01-08T22:53:51.873Z,25.00
2019-01-08T22:55:58.096Z,22.90
2019-01-08T22:58:04.132Z,22.02
2019-01-08T23:00:32.725Z,19.55
2019-01-08T23:02:43.408Z,17.92
2019-01-08T23:04:49.522Z,19.15
2019-01-08T23:06:55.553Z,19.67
2019-01-08T23:09:01.758Z,18.75
2019-01-08T23:14:28.591Z,19.35
2019-01-08T23:19:00.905Z,17.37
2019-01-08T23:19:50.155Z,17.87
2019-01-08T23:21:06.953Z,14.78
2019-01-08T23:23:14.484Z,14.13
2019-01-08T23:25:20.139Z,16.62
2019-01-08T23:27:25.678Z,19.65
2019-01-08T23:29:32.819Z,22.32
2019-01-08T23:31:38.670Z,46.40
2019-01-08T23:33:46.582Z,46.68
2019-01-08T23:35:54.221Z,35.68
2019-01-08T23:38:00.068Z,34.73
2019-01-08T23:40:06.684Z,39.83
2019-01-08T23:42:12.535Z,31.80
2019-01-08T23:44:18.260Z,25.90
2019-01-08T23:46:25.202Z,27.25
2019-01-08T23:48:30.954Z,27.80
2019-01-08T23:50:36.692Z,24.85
2019-01-08T23:52:57.586Z,26.62
2019-01-08T23:55:05.626Z,18.55
2019-01-08T23:57:12.247Z,19.12
2019-01-08T23:59:17.831Z,14.65
